Ledbetter, Texas
Current Conditions -  °F | °C
As of 9:15 PM on Saturday 20 Dec 2014 (Local Time) from KGYB Reporting Station
Haze Haze  
Wind Chill: 50°   Ceiling: 700
Heat Index: 50°   Visibility: 5mi
Dew Point: 48°   Wind: 6mph
Humidity: 92%   Direction: 90°E
Pressure: 30.22"   Gusts: NA
Location:  30.15°N, 96.79°W
Report Text: KGYB 210315Z AUTO 09005KT 5SM BR OVC007 10/09 A3022 RMK AO2 T01000087
Loading
Personal Weather Stations






























Interactive Weather Map New forecast layout! Learn more

10-Day Weather Forecast

Advertisements
Track Severe Weather on mobile